If you wish to contribute or participate in the discussions about articles you are invited to join SKYbrary as a registered user

 Actions

Edward G. Pitka Sr. Airport

From SKYbrary Wiki

PAGA
Airport
ICAO: PAGA
Summary
Name Edward G. Pitka Sr. Airport
Region North America
Territory Alaska US.gif
Location Galena
Serving
Coordinates 64° 44' 13.30" N, 156° 57' 9.42" W
Runways
Designator Length Width Surface ROPS
6/24 849 m2,785.433 ft
24 m78.74 ft
GVL /
7/25 2211 m7,253.937 ft
46 m150.919 ft
PEM yes/yes


METAR
Observation PAGA 221256Z AUTO 00000KT 10SM OVC021 M02/M04 A2978 RMK AO2 SLP086 T10221039 FZRANO
Station Galena, Edward G. Pitka Sr. Airport
Date/Time 22 October 2019 12:56:00
Wind direction
Wind speed 00 kts
Lowest cloud amount overcast
Temperature
Dew point
Humidity 88%
QNH hPa
Weather condition n/a

BS
Tag(s) Bird Strike
CFIT
Tag(s) Altimeter Temperature Error Correction

Edward G. Pitka Sr. Airport

ICAO: PAGA IATA: GAL

Description

Regional airport serving Galena, Alaska. Formerly Galena Air Force Base.

Climatology

Subarctic climate (Köppen climate classification Dfc) - long, usually very cold winters, and short, cool to mild summers.

Maps

Terrain

Loading map...

Airport Layout

Loading map...


Accidents & Serious Incidents at or in vicinity of PAGA

None on SKYbrary